sensor_id;sensor_type;location;lat;lon;timestamp;P1;durP1;ratioP1;P2;durP2;ratioP2
18917;SDS011;9591;52.742;13.650;2022-07-29T00:00:15;9.03;;;3.27;;
18917;SDS011;9591;52.742;13.650;2022-07-29T00:03:01;2.93;;;2.63;;
18917;SDS011;9591;52.742;13.650;2022-07-29T00:05:49;7.67;;;3.10;;
18917;SDS011;9591;52.742;13.650;2022-07-29T00:08:36;5.33;;;3.20;;
18917;SDS011;9591;52.742;13.650;2022-07-29T00:11:23;4.87;;;3.30;;
18917;SDS011;9591;52.742;13.650;2022-07-29T00:14:10;10.43;;;3.07;;
18917;SDS011;9591;52.742;13.650;2022-07-29T00:16:58;5.17;;;3.10;;
18917;SDS011;9591;52.742;13.650;2022-07-29T00:19:45;3.60;;;3.20;;
18917;SDS011;9591;52.742;13.650;2022-07-29T00:22:37;7.10;;;3.47;;
18917;SDS011;9591;52.742;13.650;2022-07-29T00:25:24;7.63;;;3.20;;
18917;SDS011;9591;52.742;13.650;2022-07-29T00:28:12;3.83;;;3.20;;
18917;SDS011;9591;52.742;13.650;2022-07-29T00:31:01;6.43;;;3.30;;
18917;SDS011;9591;52.742;13.650;2022-07-29T00:33:48;4.37;;;3.47;;
18917;SDS011;9591;52.742;13.650;2022-07-29T00:36:35;5.20;;;3.20;;
18917;SDS011;9591;52.742;13.650;2022-07-29T00:39:22;6.17;;;3.30;;
18917;SDS011;9591;52.742;13.650;2022-07-29T00:42:10;8.97;;;2.97;;
18917;SDS011;9591;52.742;13.650;2022-07-29T00:44:57;6.07;;;2.93;;
18917;SDS011;9591;52.742;13.650;2022-07-29T00:47:44;6.03;;;2.80;;
18917;SDS011;9591;52.742;13.650;2022-07-29T00:50:38;6.23;;;3.20;;
18917;SDS011;9591;52.742;13.650;2022-07-29T00:53:25;7.37;;;3.17;;
18917;SDS011;9591;52.742;13.650;2022-07-29T00:56:14;5.17;;;3.20;;
18917;SDS011;9591;52.742;13.650;2022-07-29T00:59:01;5.37;;;3.30;;
18917;SDS011;9591;52.742;13.650;2022-07-29T01:01:48;8.30;;;2.93;;
18917;SDS011;9591;52.742;13.650;2022-07-29T01:04:34;8.43;;;3.03;;
18917;SDS011;9591;52.742;13.650;2022-07-29T01:07:21;5.67;;;3.27;;
18917;SDS011;9591;52.742;13.650;2022-07-29T01:10:09;5.90;;;2.83;;
18917;SDS011;9591;52.742;13.650;2022-07-29T01:12:57;5.03;;;2.77;;
18917;SDS011;9591;52.742;13.650;2022-07-29T01:15:54;5.70;;;2.83;;
18917;SDS011;9591;52.742;13.650;2022-07-29T01:18:44;4.53;;;3.17;;
18917;SDS011;9591;52.742;13.650;2022-07-29T01:21:42;8.00;;;2.97;;
18917;SDS011;9591;52.742;13.650;2022-07-29T01:24:41;6.23;;;3.03;;
18917;SDS011;9591;52.742;13.650;2022-07-29T01:27:51;6.17;;;2.90;;
18917;SDS011;9591;52.742;13.650;2022-07-29T01:30:57;5.47;;;3.10;;
18917;SDS011;9591;52.742;13.650;2022-07-29T01:33:48;8.50;;;3.23;;
18917;SDS011;9591;52.742;13.650;2022-07-29T01:36:40;5.13;;;2.93;;
18917;SDS011;9591;52.742;13.650;2022-07-29T01:39:31;3.80;;;3.00;;
18917;SDS011;9591;52.742;13.650;2022-07-29T01:42:23;4.47;;;2.80;;
18917;SDS011;9591;52.742;13.650;2022-07-29T01:45:17;6.73;;;2.80;;
18917;SDS011;9591;52.742;13.650;2022-07-29T01:48:10;4.93;;;2.80;;
18917;SDS011;9591;52.742;13.650;2022-07-29T01:51:02;7.37;;;3.00;;
18917;SDS011;9591;52.742;13.650;2022-07-29T01:53:55;7.50;;;3.20;;
18917;SDS011;9591;52.742;13.650;2022-07-29T01:56:46;3.80;;;2.83;;
18917;SDS011;9591;52.742;13.650;2022-07-29T01:59:35;7.83;;;3.10;;
18917;SDS011;9591;52.742;13.650;2022-07-29T02:02:24;4.93;;;2.70;;
18917;SDS011;9591;52.742;13.650;2022-07-29T02:05:14;5.40;;;3.03;;
18917;SDS011;9591;52.742;13.650;2022-07-29T02:08:04;8.60;;;3.00;;
18917;SDS011;9591;52.742;13.650;2022-07-29T02:10:52;4.03;;;2.90;;
18917;SDS011;9591;52.742;13.650;2022-07-29T02:13:41;7.90;;;3.00;;
18917;SDS011;9591;52.742;13.650;2022-07-29T02:16:30;6.17;;;2.93;;
18917;SDS011;9591;52.742;13.650;2022-07-29T02:19:21;7.13;;;3.03;;
18917;SDS011;9591;52.742;13.650;2022-07-29T02:22:10;4.07;;;2.90;;
18917;SDS011;9591;52.742;13.650;2022-07-29T02:24:59;5.13;;;3.00;;
18917;SDS011;9591;52.742;13.650;2022-07-29T02:27:47;5.43;;;2.83;;
18917;SDS011;9591;52.742;13.650;2022-07-29T02:30:39;3.93;;;3.30;;
18917;SDS011;9591;52.742;13.650;2022-07-29T02:33:27;5.97;;;2.70;;
18917;SDS011;9591;52.742;13.650;2022-07-29T02:36:16;3.93;;;2.90;;
18917;SDS011;9591;52.742;13.650;2022-07-29T02:39:08;4.53;;;3.13;;
18917;SDS011;9591;52.742;13.650;2022-07-29T02:41:58;4.33;;;2.93;;
18917;SDS011;9591;52.742;13.650;2022-07-29T02:44:47;5.67;;;3.07;;
18917;SDS011;9591;52.742;13.650;2022-07-29T02:47:36;4.30;;;2.90;;
18917;SDS011;9591;52.742;13.650;2022-07-29T02:50:27;4.23;;;3.07;;
18917;SDS011;9591;52.742;13.650;2022-07-29T02:53:18;5.97;;;3.13;;
18917;SDS011;9591;52.742;13.650;2022-07-29T02:56:11;4.57;;;2.90;;
18917;SDS011;9591;52.742;13.650;2022-07-29T02:59:02;7.23;;;3.07;;
18917;SDS011;9591;52.742;13.650;2022-07-29T03:01:52;3.73;;;3.17;;
18917;SDS011;9591;52.742;13.650;2022-07-29T03:04:41;4.30;;;2.33;;
18917;SDS011;9591;52.742;13.650;2022-07-29T03:07:30;3.43;;;2.63;;
18917;SDS011;9591;52.742;13.650;2022-07-29T03:10:18;3.13;;;2.70;;
18917;SDS011;9591;52.742;13.650;2022-07-29T03:13:07;4.77;;;2.70;;
18917;SDS011;9591;52.742;13.650;2022-07-29T03:15:55;5.80;;;3.00;;
18917;SDS011;9591;52.742;13.650;2022-07-29T03:18:43;5.93;;;3.10;;
18917;SDS011;9591;52.742;13.650;2022-07-29T03:21:30;4.27;;;2.87;;
18917;SDS011;9591;52.742;13.650;2022-07-29T03:24:27;9.17;;;3.10;;
18917;SDS011;9591;52.742;13.650;2022-07-29T03:27:15;4.73;;;2.70;;
18917;SDS011;9591;52.742;13.650;2022-07-29T03:30:03;6.43;;;3.23;;
18917;SDS011;9591;52.742;13.650;2022-07-29T03:32:53;6.57;;;3.40;;
18917;SDS011;9591;52.742;13.650;2022-07-29T03:35:42;5.17;;;3.10;;
18917;SDS011;9591;52.742;13.650;2022-07-29T03:38:29;5.80;;;2.77;;
18917;SDS011;9591;52.742;13.650;2022-07-29T03:41:19;5.23;;;3.33;;
18917;SDS011;9591;52.742;13.650;2022-07-29T03:44:08;5.40;;;2.90;;
18917;SDS011;9591;52.742;13.650;2022-07-29T03:46:57;7.50;;;3.10;;
18917;SDS011;9591;52.742;13.650;2022-07-29T03:49:47;4.33;;;3.13;;
18917;SDS011;9591;52.742;13.650;2022-07-29T03:52:36;4.77;;;3.07;;
18917;SDS011;9591;52.742;13.650;2022-07-29T03:55:22;5.10;;;3.30;;
18917;SDS011;9591;52.742;13.650;2022-07-29T03:58:10;5.20;;;3.07;;
18917;SDS011;9591;52.742;13.650;2022-07-29T04:00:58;7.17;;;2.67;;
18917;SDS011;9591;52.742;13.650;2022-07-29T04:03:47;7.27;;;3.60;;
18917;SDS011;9591;52.742;13.650;2022-07-29T04:06:37;5.90;;;3.30;;
18917;SDS011;9591;52.742;13.650;2022-07-29T04:09:25;7.77;;;3.47;;
18917;SDS011;9591;52.742;13.650;2022-07-29T04:12:12;2.97;;;2.67;;
18917;SDS011;9591;52.742;13.650;2022-07-29T04:14:58;3.00;;;2.70;;
18917;SDS011;9591;52.742;13.650;2022-07-29T04:17:45;7.93;;;3.00;;
18917;SDS011;9591;52.742;13.650;2022-07-29T04:20:35;4.73;;;2.53;;
18917;SDS011;9591;52.742;13.650;2022-07-29T04:23:21;4.23;;;2.50;;
18917;SDS011;9591;52.742;13.650;2022-07-29T04:26:09;4.17;;;3.10;;
18917;SDS011;9591;52.742;13.650;2022-07-29T04:28:56;6.33;;;2.87;;
18917;SDS011;9591;52.742;13.650;2022-07-29T04:31:43;3.63;;;2.63;;
18917;SDS011;9591;52.742;13.650;2022-07-29T04:34:30;7.90;;;3.20;;
18917;SDS011;9591;52.742;13.650;2022-07-29T04:37:18;7.90;;;3.00;;
18917;SDS011;9591;52.742;13.650;2022-07-29T04:40:05;6.63;;;3.17;;
18917;SDS011;9591;52.742;13.650;2022-07-29T04:42:52;5.10;;;2.53;;
18917;SDS011;9591;52.742;13.650;2022-07-29T04:45:44;6.40;;;2.60;;
18917;SDS011;9591;52.742;13.650;2022-07-29T04:48:31;4.80;;;2.60;;
18917;SDS011;9591;52.742;13.650;2022-07-29T04:51:18;5.60;;;2.70;;
18917;SDS011;9591;52.742;13.650;2022-07-29T04:54:06;4.93;;;2.90;;
18917;SDS011;9591;52.742;13.650;2022-07-29T04:56:53;4.90;;;2.43;;
18917;SDS011;9591;52.742;13.650;2022-07-29T04:59:43;5.37;;;2.83;;
18917;SDS011;9591;52.742;13.650;2022-07-29T05:02:39;9.77;;;2.97;;
18917;SDS011;9591;52.742;13.650;2022-07-29T05:05:27;3.83;;;2.70;;
18917;SDS011;9591;52.742;13.650;2022-07-29T05:08:14;9.13;;;2.80;;
18917;SDS011;9591;52.742;13.650;2022-07-29T05:11:02;4.53;;;2.53;;
18917;SDS011;9591;52.742;13.650;2022-07-29T05:13:56;3.43;;;2.50;;
18917;SDS011;9591;52.742;13.650;2022-07-29T05:16:43;4.87;;;2.50;;
18917;SDS011;9591;52.742;13.650;2022-07-29T05:19:30;3.20;;;2.63;;
18917;SDS011;9591;52.742;13.650;2022-07-29T05:22:17;6.63;;;2.90;;
18917;SDS011;9591;52.742;13.650;2022-07-29T05:25:04;7.43;;;2.90;;
18917;SDS011;9591;52.742;13.650;2022-07-29T05:27:54;7.30;;;2.90;;
18917;SDS011;9591;52.742;13.650;2022-07-29T05:30:42;6.53;;;2.63;;
18917;SDS011;9591;52.742;13.650;2022-07-29T05:33:29;4.27;;;2.40;;
18917;SDS011;9591;52.742;13.650;2022-07-29T05:36:20;5.87;;;2.87;;
18917;SDS011;9591;52.742;13.650;2022-07-29T05:39:07;9.23;;;3.07;;
18917;SDS011;9591;52.742;13.650;2022-07-29T05:41:54;5.47;;;2.40;;
18917;SDS011;9591;52.742;13.650;2022-07-29T05:44:42;4.63;;;3.37;;
18917;SDS011;9591;52.742;13.650;2022-07-29T05:47:29;4.43;;;3.00;;
18917;SDS011;9591;52.742;13.650;2022-07-29T05:50:16;7.10;;;3.00;;
18917;SDS011;9591;52.742;13.650;2022-07-29T05:53:05;6.20;;;2.73;;
18917;SDS011;9591;52.742;13.650;2022-07-29T05:56:04;6.00;;;2.50;;
18917;SDS011;9591;52.742;13.650;2022-07-29T05:58:53;4.30;;;2.83;;
18917;SDS011;9591;52.742;13.650;2022-07-29T06:01:42;4.57;;;2.90;;
18917;SDS011;9591;52.742;13.650;2022-07-29T06:04:29;4.20;;;2.30;;
18917;SDS011;9591;52.742;13.650;2022-07-29T06:07:16;2.60;;;2.40;;
18917;SDS011;9591;52.742;13.650;2022-07-29T06:10:03;6.27;;;2.67;;
18917;SDS011;9591;52.742;13.650;2022-07-29T06:12:51;7.93;;;3.00;;
18917;SDS011;9591;52.742;13.650;2022-07-29T06:15:37;4.97;;;2.47;;
18917;SDS011;9591;52.742;13.650;2022-07-29T06:18:26;4.70;;;2.50;;
18917;SDS011;9591;52.742;13.650;2022-07-29T06:21:13;5.73;;;2.97;;
18917;SDS011;9591;52.742;13.650;2022-07-29T06:24:01;8.30;;;3.20;;
18917;SDS011;9591;52.742;13.650;2022-07-29T06:26:47;4.40;;;2.40;;
18917;SDS011;9591;52.742;13.650;2022-07-29T06:29:34;6.67;;;2.73;;
18917;SDS011;9591;52.742;13.650;2022-07-29T06:32:21;5.13;;;2.60;;
18917;SDS011;9591;52.742;13.650;2022-07-29T06:35:12;8.17;;;2.80;;
18917;SDS011;9591;52.742;13.650;2022-07-29T06:38:19;4.70;;;2.70;;
18917;SDS011;9591;52.742;13.650;2022-07-29T06:41:18;4.80;;;2.30;;
18917;SDS011;9591;52.742;13.650;2022-07-29T06:44:05;5.20;;;2.87;;
18917;SDS011;9591;52.742;13.650;2022-07-29T06:46:52;3.10;;;2.40;;
18917;SDS011;9591;52.742;13.650;2022-07-29T06:49:40;4.70;;;2.53;;
18917;SDS011;9591;52.742;13.650;2022-07-29T06:52:28;4.23;;;2.83;;
18917;SDS011;9591;52.742;13.650;2022-07-29T06:55:15;3.97;;;2.60;;
18917;SDS011;9591;52.742;13.650;2022-07-29T06:58:10;7.27;;;2.90;;
18917;SDS011;9591;52.742;13.650;2022-07-29T07:00:57;4.60;;;2.50;;
18917;SDS011;9591;52.742;13.650;2022-07-29T07:03:47;6.17;;;2.90;;
18917;SDS011;9591;52.742;13.650;2022-07-29T07:06:34;7.07;;;2.80;;
18917;SDS011;9591;52.742;13.650;2022-07-29T07:09:24;4.90;;;2.73;;
18917;SDS011;9591;52.742;13.650;2022-07-29T07:12:30;7.70;;;2.73;;
18917;SDS011;9591;52.742;13.650;2022-07-29T07:15:19;5.43;;;2.40;;
18917;SDS011;9591;52.742;13.650;2022-07-29T07:18:23;4.83;;;2.57;;
18917;SDS011;9591;52.742;13.650;2022-07-29T07:21:09;6.53;;;3.47;;
18917;SDS011;9591;52.742;13.650;2022-07-29T07:24:03;6.83;;;2.80;;
18917;SDS011;9591;52.742;13.650;2022-07-29T07:26:52;7.30;;;2.70;;
18917;SDS011;9591;52.742;13.650;2022-07-29T07:29:39;5.03;;;2.60;;
18917;SDS011;9591;52.742;13.650;2022-07-29T07:32:28;2.87;;;2.30;;
18917;SDS011;9591;52.742;13.650;2022-07-29T07:35:15;9.73;;;2.60;;
18917;SDS011;9591;52.742;13.650;2022-07-29T07:38:01;5.33;;;2.50;;
18917;SDS011;9591;52.742;13.650;2022-07-29T07:40:48;9.10;;;2.53;;
18917;SDS011;9591;52.742;13.650;2022-07-29T07:43:36;9.10;;;2.50;;
18917;SDS011;9591;52.742;13.650;2022-07-29T07:46:23;4.97;;;2.50;;
18917;SDS011;9591;52.742;13.650;2022-07-29T07:49:09;4.13;;;2.60;;
18917;SDS011;9591;52.742;13.650;2022-07-29T07:51:56;7.73;;;2.47;;
18917;SDS011;9591;52.742;13.650;2022-07-29T07:54:43;4.07;;;2.47;;
18917;SDS011;9591;52.742;13.650;2022-07-29T07:57:30;4.30;;;2.33;;
18917;SDS011;9591;52.742;13.650;2022-07-29T08:00:18;3.23;;;2.33;;
18917;SDS011;9591;52.742;13.650;2022-07-29T08:03:07;3.87;;;2.50;;
18917;SDS011;9591;52.742;13.650;2022-07-29T08:06:01;8.13;;;2.70;;
18917;SDS011;9591;52.742;13.650;2022-07-29T08:08:47;3.93;;;2.57;;
18917;SDS011;9591;52.742;13.650;2022-07-29T08:11:36;2.77;;;2.23;;
18917;SDS011;9591;52.742;13.650;2022-07-29T08:14:35;5.17;;;2.40;;
18917;SDS011;9591;52.742;13.650;2022-07-29T08:17:23;4.00;;;2.40;;
18917;SDS011;9591;52.742;13.650;2022-07-29T08:20:11;6.77;;;2.10;;
18917;SDS011;9591;52.742;13.650;2022-07-29T08:22:58;5.33;;;2.20;;
18917;SDS011;9591;52.742;13.650;2022-07-29T08:25:45;3.60;;;2.23;;
18917;SDS011;9591;52.742;13.650;2022-07-29T08:28:34;3.93;;;2.13;;
18917;SDS011;9591;52.742;13.650;2022-07-29T08:31:21;2.90;;;1.90;;
18917;SDS011;9591;52.742;13.650;2022-07-29T08:34:09;3.43;;;2.10;;
18917;SDS011;9591;52.742;13.650;2022-07-29T08:36:55;3.27;;;2.30;;
18917;SDS011;9591;52.742;13.650;2022-07-29T08:39:42;3.33;;;1.80;;
18917;SDS011;9591;52.742;13.650;2022-07-29T08:42:30;5.90;;;2.00;;
18917;SDS011;9591;52.742;13.650;2022-07-29T08:45:17;4.73;;;2.30;;
18917;SDS011;9591;52.742;13.650;2022-07-29T08:48:04;3.70;;;1.90;;
18917;SDS011;9591;52.742;13.650;2022-07-29T08:50:56;4.93;;;1.73;;
18917;SDS011;9591;52.742;13.650;2022-07-29T08:53:44;3.30;;;2.00;;
18917;SDS011;9591;52.742;13.650;2022-07-29T08:56:33;24.73;;;2.60;;
18917;SDS011;9591;52.742;13.650;2022-07-29T08:59:22;4.13;;;1.80;;
18917;SDS011;9591;52.742;13.650;2022-07-29T09:02:19;3.63;;;2.23;;
18917;SDS011;9591;52.742;13.650;2022-07-29T09:05:20;15.60;;;2.33;;
18917;SDS011;9591;52.742;13.650;2022-07-29T09:08:10;3.27;;;1.97;;
18917;SDS011;9591;52.742;13.650;2022-07-29T09:10:58;5.03;;;1.80;;
18917;SDS011;9591;52.742;13.650;2022-07-29T09:13:50;2.27;;;1.70;;
18917;SDS011;9591;52.742;13.650;2022-07-29T09:16:43;6.60;;;1.83;;
18917;SDS011;9591;52.742;13.650;2022-07-29T09:19:37;6.93;;;1.93;;
18917;SDS011;9591;52.742;13.650;2022-07-29T09:22:29;4.87;;;1.93;;
18917;SDS011;9591;52.742;13.650;2022-07-29T09:25:34;3.53;;;1.90;;
18917;SDS011;9591;52.742;13.650;2022-07-29T09:28:22;4.37;;;1.80;;
18917;SDS011;9591;52.742;13.650;2022-07-29T09:31:09;1.60;;;1.50;;
18917;SDS011;9591;52.742;13.650;2022-07-29T09:33:57;7.37;;;2.07;;
18917;SDS011;9591;52.742;13.650;2022-07-29T09:36:46;5.70;;;1.73;;
18917;SDS011;9591;52.742;13.650;2022-07-29T09:39:34;4.87;;;1.97;;
18917;SDS011;9591;52.742;13.650;2022-07-29T09:42:30;2.87;;;1.60;;
18917;SDS011;9591;52.742;13.650;2022-07-29T09:45:28;5.27;;;1.90;;
18917;SDS011;9591;52.742;13.650;2022-07-29T09:48:16;4.17;;;1.80;;
18917;SDS011;9591;52.742;13.650;2022-07-29T09:51:05;5.60;;;1.93;;
18917;SDS011;9591;52.742;13.650;2022-07-29T09:53:52;3.67;;;1.70;;
18917;SDS011;9591;52.742;13.650;2022-07-29T09:56:39;2.50;;;1.47;;
18917;SDS011;9591;52.742;13.650;2022-07-29T09:59:28;2.40;;;1.60;;
18917;SDS011;9591;52.742;13.650;2022-07-29T10:02:15;5.13;;;1.47;;
18917;SDS011;9591;52.742;13.650;2022-07-29T10:05:15;21.23;;;4.53;;
18917;SDS011;9591;52.742;13.650;2022-07-29T10:08:04;2.87;;;1.50;;
18917;SDS011;9591;52.742;13.650;2022-07-29T10:11:03;2.93;;;1.57;;
18917;SDS011;9591;52.742;13.650;2022-07-29T10:13:55;5.53;;;1.60;;
18917;SDS011;9591;52.742;13.650;2022-07-29T10:16:45;9.80;;;1.60;;
18917;SDS011;9591;52.742;13.650;2022-07-29T10:19:32;1.97;;;1.30;;
18917;SDS011;9591;52.742;13.650;2022-07-29T10:22:19;5.10;;;1.60;;
18917;SDS011;9591;52.742;13.650;2022-07-29T10:25:26;2.23;;;1.57;;
18917;SDS011;9591;52.742;13.650;2022-07-29T10:28:13;3.70;;;1.87;;
18917;SDS011;9591;52.742;13.650;2022-07-29T10:31:02;2.23;;;1.37;;
18917;SDS011;9591;52.742;13.650;2022-07-29T10:33:58;3.40;;;1.60;;
18917;SDS011;9591;52.742;13.650;2022-07-29T10:36:54;4.03;;;1.60;;
18917;SDS011;9591;52.742;13.650;2022-07-29T10:39:57;4.07;;;1.70;;
18917;SDS011;9591;52.742;13.650;2022-07-29T10:43:16;5.30;;;1.83;;
18917;SDS011;9591;52.742;13.650;2022-07-29T10:46:05;18.93;;;2.27;;
18917;SDS011;9591;52.742;13.650;2022-07-29T10:49:05;1.87;;;1.20;;
18917;SDS011;9591;52.742;13.650;2022-07-29T10:52:00;7.20;;;1.70;;
18917;SDS011;9591;52.742;13.650;2022-07-29T10:54:50;3.10;;;1.47;;
18917;SDS011;9591;52.742;13.650;2022-07-29T10:57:38;2.40;;;1.30;;
18917;SDS011;9591;52.742;13.650;2022-07-29T11:00:47;3.60;;;1.43;;
18917;SDS011;9591;52.742;13.650;2022-07-29T11:03:44;4.13;;;1.50;;
18917;SDS011;9591;52.742;13.650;2022-07-29T11:19:46;2.33;;;1.47;;
18917;SDS011;9591;52.742;13.650;2022-07-29T11:22:37;3.33;;;1.43;;
18917;SDS011;9591;52.742;13.650;2022-07-29T11:25:31;4.70;;;1.50;;
18917;SDS011;9591;52.742;13.650;2022-07-29T11:28:36;5.97;;;2.27;;
18917;SDS011;9591;52.742;13.650;2022-07-29T11:31:35;3.83;;;1.20;;
18917;SDS011;9591;52.742;13.650;2022-07-29T11:34:26;2.90;;;1.27;;
18917;SDS011;9591;52.742;13.650;2022-07-29T11:37:22;3.73;;;1.50;;
18917;SDS011;9591;52.742;13.650;2022-07-29T11:43:09;3.63;;;1.87;;
18917;SDS011;9591;52.742;13.650;2022-07-29T11:45:58;4.33;;;1.50;;
18917;SDS011;9591;52.742;13.650;2022-07-29T11:48:45;9.97;;;1.80;;
18917;SDS011;9591;52.742;13.650;2022-07-29T11:51:36;4.83;;;1.70;;
18917;SDS011;9591;52.742;13.650;2022-07-29T11:54:33;2.43;;;1.67;;
18917;SDS011;9591;52.742;13.650;2022-07-29T11:57:49;8.63;;;1.60;;
18917;SDS011;9591;52.742;13.650;2022-07-29T12:00:48;7.80;;;2.10;;
18917;SDS011;9591;52.742;13.650;2022-07-29T12:03:35;4.80;;;1.90;;
18917;SDS011;9591;52.742;13.650;2022-07-29T12:06:23;4.10;;;1.80;;
18917;SDS011;9591;52.742;13.650;2022-07-29T12:09:09;3.23;;;1.90;;
18917;SDS011;9591;52.742;13.650;2022-07-29T12:11:58;2.53;;;2.00;;
18917;SDS011;9591;52.742;13.650;2022-07-29T12:14:50;3.23;;;1.70;;
18917;SDS011;9591;52.742;13.650;2022-07-29T12:17:37;5.60;;;1.67;;
18917;SDS011;9591;52.742;13.650;2022-07-29T12:20:26;6.23;;;2.33;;
18917;SDS011;9591;52.742;13.650;2022-07-29T12:23:14;4.83;;;2.23;;
18917;SDS011;9591;52.742;13.650;2022-07-29T12:26:03;5.47;;;1.80;;
18917;SDS011;9591;52.742;13.650;2022-07-29T12:29:06;25.83;;;3.07;;
18917;SDS011;9591;52.742;13.650;2022-07-29T12:32:05;5.00;;;2.03;;
18917;SDS011;9591;52.742;13.650;2022-07-29T12:35:04;3.63;;;2.30;;
18917;SDS011;9591;52.742;13.650;2022-07-29T12:37:52;2.70;;;1.97;;
18917;SDS011;9591;52.742;13.650;2022-07-29T12:40:40;12.27;;;1.97;;
18917;SDS011;9591;52.742;13.650;2022-07-29T12:43:30;4.10;;;1.97;;
18917;SDS011;9591;52.742;13.650;2022-07-29T12:46:17;4.60;;;2.07;;
18917;SDS011;9591;52.742;13.650;2022-07-29T12:49:05;8.60;;;2.30;;
18917;SDS011;9591;52.742;13.650;2022-07-29T12:51:53;5.70;;;2.10;;
18917;SDS011;9591;52.742;13.650;2022-07-29T12:54:46;6.97;;;1.93;;
18917;SDS011;9591;52.742;13.650;2022-07-29T12:57:44;21.27;;;3.03;;
18917;SDS011;9591;52.742;13.650;2022-07-29T13:00:31;5.10;;;2.20;;
18917;SDS011;9591;52.742;13.650;2022-07-29T13:03:18;2.80;;;1.90;;
18917;SDS011;9591;52.742;13.650;2022-07-29T13:06:06;6.27;;;2.83;;
18917;SDS011;9591;52.742;13.650;2022-07-29T13:09:00;4.47;;;2.30;;
18917;SDS011;9591;52.742;13.650;2022-07-29T13:11:50;6.27;;;2.70;;
18917;SDS011;9591;52.742;13.650;2022-07-29T13:14:39;2.87;;;2.00;;
18917;SDS011;9591;52.742;13.650;2022-07-29T13:17:27;3.33;;;2.13;;
18917;SDS011;9591;52.742;13.650;2022-07-29T13:20:16;3.77;;;2.27;;
18917;SDS011;9591;52.742;13.650;2022-07-29T13:23:05;3.50;;;2.13;;
18917;SDS011;9591;52.742;13.650;2022-07-29T13:25:51;4.50;;;2.50;;
18917;SDS011;9591;52.742;13.650;2022-07-29T13:28:39;2.67;;;2.33;;
18917;SDS011;9591;52.742;13.650;2022-07-29T13:31:28;7.00;;;2.20;;
18917;SDS011;9591;52.742;13.650;2022-07-29T13:34:14;5.17;;;2.50;;
18917;SDS011;9591;52.742;13.650;2022-07-29T13:37:02;32.70;;;3.33;;
18917;SDS011;9591;52.742;13.650;2022-07-29T13:39:50;3.90;;;2.37;;
18917;SDS011;9591;52.742;13.650;2022-07-29T13:42:37;4.27;;;2.20;;
18917;SDS011;9591;52.742;13.650;2022-07-29T13:45:24;5.13;;;2.17;;
18917;SDS011;9591;52.742;13.650;2022-07-29T13:48:13;4.70;;;2.40;;
18917;SDS011;9591;52.742;13.650;2022-07-29T13:51:00;5.50;;;2.20;;
18917;SDS011;9591;52.742;13.650;2022-07-29T13:53:46;11.90;;;2.00;;
18917;SDS011;9591;52.742;13.650;2022-07-29T13:56:34;2.50;;;1.90;;
18917;SDS011;9591;52.742;13.650;2022-07-29T13:59:21;4.23;;;2.27;;
18917;SDS011;9591;52.742;13.650;2022-07-29T14:02:09;4.50;;;2.10;;
18917;SDS011;9591;52.742;13.650;2022-07-29T14:04:59;4.40;;;2.30;;
18917;SDS011;9591;52.742;13.650;2022-07-29T14:07:52;3.97;;;2.23;;
18917;SDS011;9591;52.742;13.650;2022-07-29T14:10:39;4.20;;;2.20;;
18917;SDS011;9591;52.742;13.650;2022-07-29T14:13:27;8.03;;;2.07;;
18917;SDS011;9591;52.742;13.650;2022-07-29T14:16:15;4.20;;;2.07;;
18917;SDS011;9591;52.742;13.650;2022-07-29T14:19:02;7.60;;;2.07;;
18917;SDS011;9591;52.742;13.650;2022-07-29T14:21:49;6.10;;;2.13;;
18917;SDS011;9591;52.742;13.650;2022-07-29T14:24:36;3.37;;;2.10;;
18917;SDS011;9591;52.742;13.650;2022-07-29T14:27:23;2.23;;;1.93;;
18917;SDS011;9591;52.742;13.650;2022-07-29T14:30:23;6.47;;;2.50;;
18917;SDS011;9591;52.742;13.650;2022-07-29T14:33:10;8.00;;;2.77;;
18917;SDS011;9591;52.742;13.650;2022-07-29T14:35:57;3.17;;;2.13;;
18917;SDS011;9591;52.742;13.650;2022-07-29T14:38:45;3.47;;;2.10;;
18917;SDS011;9591;52.742;13.650;2022-07-29T14:41:32;11.70;;;2.97;;
18917;SDS011;9591;52.742;13.650;2022-07-29T14:44:18;3.70;;;2.20;;
18917;SDS011;9591;52.742;13.650;2022-07-29T14:47:07;2.83;;;2.23;;
18917;SDS011;9591;52.742;13.650;2022-07-29T14:49:53;15.23;;;2.20;;
18917;SDS011;9591;52.742;13.650;2022-07-29T14:52:40;3.83;;;2.10;;
18917;SDS011;9591;52.742;13.650;2022-07-29T14:55:27;2.77;;;1.90;;
18917;SDS011;9591;52.742;13.650;2022-07-29T14:58:14;5.37;;;2.20;;
18917;SDS011;9591;52.742;13.650;2022-07-29T15:01:00;4.67;;;2.10;;
18917;SDS011;9591;52.742;13.650;2022-07-29T15:03:49;6.50;;;2.30;;
18917;SDS011;9591;52.742;13.650;2022-07-29T15:06:35;2.40;;;2.00;;
18917;SDS011;9591;52.742;13.650;2022-07-29T15:09:23;4.47;;;2.33;;
18917;SDS011;9591;52.742;13.650;2022-07-29T15:12:09;2.67;;;1.90;;
18917;SDS011;9591;52.742;13.650;2022-07-29T15:14:56;10.47;;;2.40;;
18917;SDS011;9591;52.742;13.650;2022-07-29T15:17:43;3.03;;;2.13;;
18917;SDS011;9591;52.742;13.650;2022-07-29T15:20:32;5.20;;;2.90;;
18917;SDS011;9591;52.742;13.650;2022-07-29T15:23:18;7.20;;;2.23;;
18917;SDS011;9591;52.742;13.650;2022-07-29T15:26:05;6.20;;;2.30;;
18917;SDS011;9591;52.742;13.650;2022-07-29T15:28:52;2.77;;;2.10;;
18917;SDS011;9591;52.742;13.650;2022-07-29T15:31:40;6.10;;;2.30;;
18917;SDS011;9591;52.742;13.650;2022-07-29T15:34:27;6.77;;;2.00;;
18917;SDS011;9591;52.742;13.650;2022-07-29T15:37:15;3.70;;;2.00;;
18917;SDS011;9591;52.742;13.650;2022-07-29T15:40:02;5.77;;;1.90;;
18917;SDS011;9591;52.742;13.650;2022-07-29T15:42:49;8.87;;;2.40;;
18917;SDS011;9591;52.742;13.650;2022-07-29T15:45:36;5.10;;;2.20;;
18917;SDS011;9591;52.742;13.650;2022-07-29T15:48:24;6.93;;;2.10;;
18917;SDS011;9591;52.742;13.650;2022-07-29T15:51:11;3.57;;;2.27;;
18917;SDS011;9591;52.742;13.650;2022-07-29T15:53:59;6.00;;;2.13;;
18917;SDS011;9591;52.742;13.650;2022-07-29T15:56:46;2.77;;;2.10;;
18917;SDS011;9591;52.742;13.650;2022-07-29T15:59:33;4.97;;;2.10;;
18917;SDS011;9591;52.742;13.650;2022-07-29T16:02:20;2.50;;;2.30;;
18917;SDS011;9591;52.742;13.650;2022-07-29T16:05:07;7.07;;;1.90;;
18917;SDS011;9591;52.742;13.650;2022-07-29T16:07:53;3.63;;;1.73;;
18917;SDS011;9591;52.742;13.650;2022-07-29T16:10:42;3.87;;;1.90;;
18917;SDS011;9591;52.742;13.650;2022-07-29T16:13:29;2.03;;;1.70;;
18917;SDS011;9591;52.742;13.650;2022-07-29T16:16:16;4.40;;;2.00;;
18917;SDS011;9591;52.742;13.650;2022-07-29T16:22:15;4.53;;;1.97;;
18917;SDS011;9591;52.742;13.650;2022-07-29T16:25:01;16.77;;;2.53;;
18917;SDS011;9591;52.742;13.650;2022-07-29T16:27:50;4.00;;;2.30;;
18917;SDS011;9591;52.742;13.650;2022-07-29T16:30:43;6.10;;;1.90;;
18917;SDS011;9591;52.742;13.650;2022-07-29T16:33:30;2.53;;;1.73;;
18917;SDS011;9591;52.742;13.650;2022-07-29T16:36:36;6.47;;;1.87;;
18917;SDS011;9591;52.742;13.650;2022-07-29T16:39:23;4.20;;;1.90;;
18917;SDS011;9591;52.742;13.650;2022-07-29T16:42:10;4.13;;;2.07;;
18917;SDS011;9591;52.742;13.650;2022-07-29T16:45:18;7.20;;;1.97;;
18917;SDS011;9591;52.742;13.650;2022-07-29T16:48:05;4.73;;;1.90;;
18917;SDS011;9591;52.742;13.650;2022-07-29T16:50:52;1.90;;;1.57;;
18917;SDS011;9591;52.742;13.650;2022-07-29T16:53:40;4.27;;;1.80;;
18917;SDS011;9591;52.742;13.650;2022-07-29T16:56:27;3.87;;;1.87;;
18917;SDS011;9591;52.742;13.650;2022-07-29T16:59:13;3.87;;;1.77;;
18917;SDS011;9591;52.742;13.650;2022-07-29T17:02:02;5.17;;;2.00;;
18917;SDS011;9591;52.742;13.650;2022-07-29T17:04:49;4.87;;;1.80;;
18917;SDS011;9591;52.742;13.650;2022-07-29T17:07:35;4.53;;;2.50;;
18917;SDS011;9591;52.742;13.650;2022-07-29T17:10:23;8.17;;;2.30;;
18917;SDS011;9591;52.742;13.650;2022-07-29T17:13:11;9.07;;;3.10;;
18917;SDS011;9591;52.742;13.650;2022-07-29T17:15:58;3.53;;;2.30;;
18917;SDS011;9591;52.742;13.650;2022-07-29T17:18:46;5.43;;;2.07;;
18917;SDS011;9591;52.742;13.650;2022-07-29T17:21:33;4.53;;;2.97;;